Wildersville, TN

7:32 PM CDT on August 20, 2014 (GMT -0500)
SW Huntingdon | Change Station
CLOSE
Current Station
Personal Weather Station
Location: Huntingdon, TN
Elevation: 410 ft
Nearby Weather Stations

Elev 410 ft 35.99 °N, 88.44 °W | Updated 8 seconds ago

Clear
Clear
84.9 °F
Feels Like 94 °F
N
0.0
Wind Variable Wind from SSE
Gusts 1.7 mph

Today
High -- | Low -- °F
--% Chance of Precip.
Yesterday
High -- | Low -- °F
Precip. -- in
6:16 AM 7:36 PM
Waning Crescent, 18% visible
Pressure 29.96 in
Visibility 10.0 miles
Clouds Clear
Heat Index 94 °F
Dew Point 76 °F
Humidity 73%
Rainfall 0.00 in
Snow Depth Not available.
UV 0 out of 12
Pollen 8.50 out of 12
Air Quality Not available.
Flu Activity Not available.
METAR KMKL 202353Z 20006KT 10SM CLR 31/23 A2997 RMK AO2 SLP144 T03060233 10339 20306 55003

More Conditions Fewer Conditions

Pressure 29.96 in
Visibility 10.0 miles
Clouds Clear
Heat Index 94 °F
Dew Point 76 °F
Humidity 73%
Rainfall 0.00 in
Snow Depth Not available.
UV 0 out of 12
Pollen 8.50 out of 12
Air Quality Not available.
Flu Activity Not available.
METAR KMKL 202353Z 20006KT 10SM CLR 31/23 A2997 RMK AO2 SLP144 T03060233 10339 20306 55003

More Conditions Fewer Conditions

10-Day Weather Forecast

Almanac

Astronomy

Aug. 20, 2014 Rise Set
Actual Time 6:16 AM CDT 7:36 PM CDT
Civil Twilight 5:49 AM CDT 8:03 PM CDT
Nautical Twilight 5:17 AM CDT 8:35 PM CDT
Astronomical Twilight 4:44 AM CDT 9:08 PM CDT
Moon 1:59 AM CDT (8/20) 4:18 PM CDT (8/20)
Length of Visible Light 14h 14m
Length of Day
13h 20m
Tomorrow will be 2m 2s shorter.
Waning Crescent, 18% of the Moon is Illuminated
Today
Waning Crescent
Aug 25
New
Sep 2
First Quarter
Sep 8
Full
Sep 15
Last Quarter

Today's Extremes

State Highs State Lows

Community

WunderPhotos

Upload Photos

1,745,811 photos uploaded!

WunderBlogs® & News

Nearby

Snow Depth

Station Depth Elevation
No new snow has been reported.

Earthquake Activity

City Distance Mag. Time & Date
No recent earthquake activity has been reported nearby.
Minimum magnitude displayed is 2.5.

Coastal Water Temperatures

Place Temperature
No Stations Reporting

Nearby Weather Stations